Latest Weather Observations for Pearce

IDW60901

Issued at 11:41 pm WST Monday 20 February 2017 (issued every 10 minutes, with the page automatically refreshed every 10 minutes)

About weather observations | Map of Perth area stations | Latest observations for Perth area | Other Formats
Station Details ID: 009053 Name: PEARCE RAAF Lat: -31.67 Lon: 116.02 Height: 40.0 m
Data from the previous 72 hours. | See also: Recent months at Pearce
Date/Time
WST
Temp
°C
App
Temp
°C
Dew
Point
°C
Rel
Hum
%
Delta-T
°C
Wind Press
QNH
hPa
Press
MSL
hPa
Rain since
9am
mm
Dir  Spd
km/h
Gust
km/h
Spd
kts
Gust
kts
20/11:30pm 16.8 15.1 12.3 75 2.5 SW 13 15 7 8 1012.8 1012.6 0.0
20/11:00pm 17.2 15.5 12.3 73 2.7 WSW 13 15 7 8 1012.9 1012.7 0.0
20/10:30pm 18.6 16.1 12.4 67 3.5 SW 17 24 9 13 1013.0 1012.8 0.0
20/10:00pm 19.3 16.6 13.5 69 3.3 SSW 20 30 11 16 1013.4 1013.2 0.0
20/09:30pm 19.4 16.9 14.2 72 3.0 SW 20 30 11 16 1013.6 1013.4 0.0
20/09:00pm 19.1 17.6 15.2 78 2.3 SW 17 26 9 14 1013.5 1013.3 0.0
20/08:30pm 18.7 17.9 15.0 79 2.2 WSW 13 19 7 10 1012.9 1012.7 0.0
20/08:00pm 19.0 17.7 14.9 77 2.4 SW 15 20 8 11 1012.7 1012.5 0.0
20/07:30pm 19.5 17.6 15.2 76 2.5 SW 19 26 10 14 1012.3 1012.1 0.0
20/07:00pm 20.1 18.0 15.1 73 2.9 SW 20 28 11 15 1011.8 1011.6 0.0
20/06:30pm 20.7 17.4 14.1 66 3.8 SSW 24 33 13 18 1011.3 1011.1 0.0
20/06:00pm 21.8 18.2 14.2 62 4.4 SW 26 35 14 19 1011.1 1010.9 0.0
20/05:30pm 22.7 19.7 14.8 61 4.7 SW 24 33 13 18 1010.7 1010.5 0.0
20/05:00pm 23.3 20.3 14.8 59 5.1 SSW 24 30 13 16 1010.7 1010.5 0.0
20/04:30pm 24.0 20.6 13.8 53 6.0 WSW 24 32 13 17 1010.5 1010.3 0.0
20/04:00pm 25.1 22.0 14.6 52 6.3 WSW 24 33 13 18 1010.3 1010.1 0.0
20/03:30pm 25.8 22.6 14.3 49 6.9 WSW 24 32 13 17 1010.3 1010.1 0.0
20/03:00pm 25.2 21.8 13.7 49 6.8 SW 24 32 13 17 1010.5 1010.3 0.0
20/02:30pm 26.8 23.7 14.5 46 7.4 SW 24 33 13 18 1010.8 1010.6 0.0
20/02:00pm 26.6 24.0 15.0 49 7.0 WSW 22 30 12 16 1011.2 1011.0 0.0
20/01:30pm 27.4 25.4 15.4 48 7.3 WSW 20 30 11 16 1011.5 1011.3 0.0
20/01:00pm 27.3 25.7 16.0 50 7.0 SW 19 28 10 15 1012.0 1011.8 0.0
20/12:30pm 27.0 26.3 16.3 52 6.6 WSW 15 24 8 13 1012.1 1011.9 0.0
20/12:00pm 25.6 23.5 14.7 51 6.5 SSW 19 26 10 14 1012.4 1012.2 0.0
20/11:30am 26.9 26.9 17.1 55 6.1 S 13 24 7 13 1012.5 1012.3 0.0
20/11:00am 26.0 26.5 16.5 55 5.9 SSW 9 19 5 10 1012.9 1012.7 0.0
20/10:30am 24.5 24.4 16.0 59 5.2 S 11 19 6 10 1013.1 1012.9 0.0
20/10:00am 24.4 23.6 16.1 60 5.1 S 15 19 8 10 1013.2 1013.0 0.0
20/09:30am 23.0 23.0 16.3 66 4.1 SSW 11 19 6 10 1013.5 1013.3 0.0
20/09:00am 22.8 21.0 15.6 64 4.3 SSW 19 24 10 13 1013.3 1013.1 0.0
20/08:30am 22.3 21.5 17.0 72 3.3 SW 17 20 9 11 1013.3 1013.1 0.0
20/08:00am 21.7 20.9 18.1 80 2.2 S 19 22 10 12 1013.0 1012.8 0.0
20/07:30am 20.6 20.0 18.5 88 1.3 SSW 19 24 10 13 1012.9 1012.7 0.0
20/07:00am 20.1 21.6 18.9 93 0.8 N 9 11 5 6 1012.8 1012.6 0.0
20/06:30am 19.1 21.5 17.9 93 0.7 N 2 7 1 4 1012.7 1012.5 0.0
20/06:00am 18.4 20.9 17.2 93 0.7 CALM 0 0 0 0 1012.7 1012.5 0.0
20/05:30am 18.8 21.0 17.5 92 0.8 N 2 6 1 3 1012.4 1012.2 0.0
20/05:00am 18.5 21.0 17.2 92 0.8 CALM 0 0 0 0 1012.3 1012.1 0.0
20/04:35am 18.3 19.6 17.0 92 0.8 N 6 6 3 3 1012.3 1012.1 0.0
20/04:30am 18.3 19.6 17.0 92 0.8 N 6 7 3 4 1012.3 1012.1 0.0
20/04:00am 18.8 19.6 17.3 91 0.9 N 9 11 5 6 1012.1 1011.9 0.0
20/03:30am 19.2 19.4 17.7 91 0.9 N 13 15 7 8 1012.1 1011.9 0.0
20/03:00am 19.3 19.8 17.4 89 1.2 N 11 13 6 7 1012.1 1011.9 0.0
20/02:30am 19.4 20.3 17.5 89 1.2 N 9 13 5 7 1012.3 1012.1 0.0
20/02:00am 20.2 21.2 17.8 86 1.5 N 9 11 5 6 1012.6 1012.4 0.0
20/01:30am 20.8 23.1 17.6 82 2.0 SSW 2 7 1 4 1012.5 1012.3 0.0
20/01:00am 21.2 23.5 17.6 80 2.2 N 2 6 1 3 1012.7 1012.5 0.0
20/12:30am 21.3 22.8 17.7 80 2.2 N 6 7 3 4 1012.9 1012.7 0.0
20/12:00am 21.6 23.0 17.8 79 2.4 N 7 9 4 5 1013.1 1012.9 0.0
 
Date/Time
WST
Temp
°C
App
Temp
°C
Dew
Point
°C
Rel
Hum
%
Delta-T
°C
Wind Press
QNH
hPa
Press
MSL
hPa
Rain since
9am
mm
Dir  Spd
km/h
Gust
km/h
Spd
kts
Gust
kts
19/11:30pm 22.0 23.6 17.8 77 2.6 NW 6 9 3 5 1013.2 1013.0 0.0
19/11:00pm 22.1 23.7 18.3 79 2.4 WNW 7 9 4 5 1013.1 1012.9 0.0
19/10:30pm 22.7 24.7 18.7 78 2.5 WNW 6 7 3 4 1013.1 1012.9 0.0
19/10:00pm 23.3 25.8 19.9 81 2.2 WNW 6 7 3 4 1013.2 1013.0 0.0
19/09:30pm 23.7 26.3 20.4 82 2.1 WNW 7 9 4 5 1013.1 1012.9 0.0
19/09:00pm 24.0 26.2 20.3 80 2.4 WSW 9 11 5 6 1013.0 1012.8 0.0
19/08:30pm 24.5 27.1 20.4 78 2.7 SW 7 9 4 5 1012.7 1012.5 0.0
19/08:00pm 25.3 26.8 20.5 75 3.1 SW 13 17 7 9 1012.3 1012.1 0.0
19/07:30pm 26.5 28.2 20.1 68 4.2 W 11 13 6 7 1012.1 1011.9 0.0
19/07:00pm 27.9 29.0 19.7 61 5.3 WSW 13 15 7 8 1011.7 1011.5 0.0
19/06:30pm 29.6 29.2 18.1 50 7.4 WSW 17 20 9 11 1011.4 1011.2 0.0
19/06:00pm 31.4 30.7 17.3 43 9.0 W 17 20 9 11 1011.2 1011.0 0.0
19/05:30pm 32.9 32.3 17.5 39 9.9 W 17 22 9 12 1011.1 1010.9 0.0
19/05:00pm 33.4 32.7 18.3 40 9.8 W 19 24 10 13 1011.2 1011.0 0.0
19/04:30pm 34.0 33.0 18.9 41 9.9 W 22 28 12 15 1011.1 1010.9 0.0
19/04:00pm 34.4 32.4 18.4 38 10.4 W 26 32 14 17 1011.2 1011.0 0.0
19/03:30pm 35.1 33.5 19.1 39 10.6 W 26 35 14 19 1011.3 1011.1 0.0
19/03:00pm 36.0 34.7 19.0 36 11.2 W 24 35 13 19 1011.3 1011.1 0.0
19/02:30pm 35.9 34.0 18.5 36 11.4 W 26 35 14 19 1011.4 1011.2 0.0
19/02:00pm 35.8 33.2 17.9 34 11.7 W 28 32 15 17 1011.6 1011.4 0.0
19/01:30pm 35.4 32.5 16.2 32 12.2 WSW 26 33 14 18 1011.8 1011.6 0.0
19/01:00pm 37.0 35.2 15.5 28 13.6 N 19 32 10 17 1011.9 1011.7 0.0
19/12:30pm 36.6 34.3 14.6 27 13.7 N 20 30 11 16 1012.3 1012.1 0.0
19/12:00pm 36.0 33.3 13.5 26 13.8 NNW 20 30 11 16 1012.8 1012.6 0.0
19/11:30am 34.7 32.4 14.6 30 12.4 N 20 28 11 15 1013.4 1013.2 0.0
19/11:00am 35.0 32.6 14.3 29 12.8 N 20 28 11 15 1013.9 1013.7 0.0
19/10:30am 33.8 31.2 14.8 32 11.8 NNE 22 32 12 17 1014.2 1014.0 0.0
19/10:00am 32.4 29.2 13.1 31 11.6 NNE 22 30 12 16 1014.3 1014.1 0.0
19/09:30am 31.2 28.2 12.5 31 11.1 NE 20 28 11 15 1014.6 1014.4 0.0
19/09:00am 30.4 28.7 13.7 36 10.0 NE 15 24 8 13 1014.8 1014.6 0.0
19/08:30am 28.8 27.3 11.8 35 9.9 NE 11 17 6 9 1015.2 1014.9 0.0
19/08:00am 27.6 26.0 11.6 37 9.2 NNE 11 19 6 10 1015.1 1014.8 0.0
19/07:30am 26.8 23.3 10.9 37 9.0 ENE 20 32 11 17 1014.5 1014.3 0.0
19/07:00am 26.2 22.2 10.4 37 8.8 ENE 22 33 12 18 1014.6 1014.4 0.0
19/06:30am 26.0 23.3 10.2 37 8.8 ENE 15 28 8 15 1014.6 1014.4 0.0
19/06:00am 25.7 23.0 10.3 38 8.6 ENE 15 26 8 14 1014.3 1014.1 0.0
19/05:30am 25.8 22.6 10.0 37 8.8 ENE 17 24 9 13 1014.1 1013.9 0.0
19/05:00am 26.0 22.3 10.2 37 8.8 ENE 20 30 11 16 1014.0 1013.8 0.0
19/04:30am 26.1 23.0 10.3 37 8.8 E 17 33 9 18 1014.0 1013.8 0.0
19/04:00am 26.6 22.1 9.9 35 9.3 ENE 24 41 13 22 1013.9 1013.7 0.0
19/03:30am 26.7 21.8 10.0 35 9.3 ENE 26 35 14 19 1014.0 1013.8 0.0
19/03:00am 26.8 21.9 10.1 35 9.3 ENE 26 41 14 22 1014.1 1013.9 0.0
19/02:30am 27.0 22.1 9.8 34 9.6 E 26 39 14 21 1014.2 1014.0 0.0
19/02:00am 26.9 22.3 9.7 34 9.5 E 24 35 13 19 1014.5 1014.3 0.0
19/01:30am 26.5 22.2 9.4 34 9.4 E 22 32 12 17 1014.7 1014.5 0.0
19/01:00am 26.9 22.2 9.3 33 9.7 E 24 35 13 19 1014.8 1014.6 0.0
19/12:30am 27.5 22.4 9.3 32 10.1 E 26 32 14 17 1015.1 1014.8 0.0
19/12:00am 27.9 22.9 9.7 32 10.1 E 26 39 14 21 1015.3 1015.0 0.0
 
Date/Time
WST
Temp
°C
App
Temp
°C
Dew
Point
°C
Rel
Hum
%
Delta-T
°C
Wind Press
QNH
hPa
Press
MSL
hPa
Rain since
9am
mm
Dir  Spd
km/h
Gust
km/h
Spd
kts
Gust
kts
18/11:30pm 28.4 23.9 10.1 32 10.3 E 24 32 13 17 1015.4 1015.1 0.0
18/11:00pm 28.7 24.4 10.8 33 10.2 E 24 35 13 19 1015.6 1015.3 0.0
18/10:30pm 29.2 24.5 10.8 32 10.5 E 26 35 14 19 1015.6 1015.3 0.0
18/10:00pm 29.9 26.0 10.9 31 10.9 E 22 35 12 19 1015.8 1015.5 0.0
18/09:30pm 30.3 26.8 10.8 30 11.2 E 20 35 11 19 1015.8 1015.5 0.0
18/09:00pm 30.5 27.0 11.0 30 11.2 E 20 28 11 15 1015.8 1015.5 0.0
18/08:30pm 30.8 27.0 11.2 30 11.4 E 22 30 12 16 1015.7 1015.4 0.0
18/08:00pm 31.3 27.7 10.6 28 11.9 ESE 20 26 11 14 1015.5 1015.2 0.0
18/07:30pm 31.7 28.1 10.4 27 12.2 ESE 20 26 11 14 1015.2 1014.9 0.0
18/07:00pm 31.8 28.5 11.6 29 11.8 ESE 20 26 11 14 1015.1 1014.8 0.0
18/06:30pm 32.6 30.1 12.3 29 12.1 ESE 17 20 9 11 1015.1 1014.8 0.0
18/06:00pm 33.7 30.6 12.1 27 12.8 ESE 20 28 11 15 1015.2 1014.9 0.0
18/05:30pm 34.0 30.4 11.8 26 13.2 ESE 22 32 12 17 1015.3 1015.0 0.0
18/05:00pm 34.4 31.4 12.7 27 13.0 E 20 28 11 15 1015.3 1015.0 0.0
18/04:30pm 34.3 31.9 13.7 29 12.6 E 19 28 10 15 1015.4 1015.1 0.0
18/04:00pm 33.8 30.7 13.3 29 12.4 E 22 30 12 16 1015.5 1015.2 0.0
18/03:30pm 34.0 31.3 15.5 33 11.6 ESE 24 37 13 20 1015.5 1015.2 0.0
18/03:00pm 33.7 30.9 14.2 30 12.0 E 22 30 12 16 1015.7 1015.4 0.0
18/02:30pm 33.2 30.0 14.3 32 11.6 E 24 41 13 22 1016.0 1015.7 0.0
18/02:00pm 32.8 30.7 15.3 34 10.9 E 20 33 11 18 1016.5 1016.2 0.0
18/01:30pm 32.1 30.2 14.3 34 10.9 NE 17 24 9 13 1016.8 1016.5 0.0
18/01:00pm 31.4 29.6 15.4 38 9.9 ENE 19 30 10 16 1017.3 1017.0 0.0
18/12:30pm 30.3 27.9 14.4 38 9.7 ENE 20 33 11 18 1017.5 1017.2 0.0
18/12:00pm 29.9 28.2 14.8 39 9.2 NE 17 30 9 16 1017.9 1017.6 0.0
18/11:30am 29.8 28.5 15.9 43 8.6 ENE 17 24 9 13 1018.2 1017.9 0.0
18/11:00am 28.1 26.0 14.7 44 8.1 ENE 19 30 10 16 1018.5 1018.2 0.0
18/10:30am 27.2 25.6 13.9 44 7.9 E 15 26 8 14 1018.9 1018.6 0.0
18/10:00am 25.7 23.2 13.5 46 7.2 ENE 19 28 10 15 1019.1 1018.8 0.0
18/09:30am 25.5 24.5 14.6 51 6.5 ENE 13 24 7 13 1019.3 1019.0 0.0
18/09:00am 24.0 21.5 13.5 52 6.1 ENE 19 35 10 19 1019.4 1019.1 0.0
18/08:30am 22.5 19.6 13.0 55 5.5 ENE 20 37 11 20 1019.3 1019.0 0.0
18/08:00am 21.7 18.5 13.1 58 4.9 ENE 22 35 12 19 1019.3 1019.0 0.0
18/07:30am 20.4 18.5 13.1 63 4.2 ENE 15 35 8 19 1019.4 1019.1 0.0
18/07:00am 19.4 16.6 12.7 65 3.8 ENE 19 41 10 22 1019.4 1019.1 0.0
18/06:30am 19.0 17.0 12.7 67 3.5 E 15 28 8 15 1019.4 1019.1 0.0
18/06:00am 18.8 16.8 12.8 68 3.4 E 15 24 8 13 1019.1 1018.8 0.0
18/05:30am 19.1 17.1 12.8 67 3.5 ESE 15 28 8 15 1018.6 1018.3 0.0
18/05:00am 19.4 17.8 12.9 66 3.7 SE 13 26 7 14 1018.3 1018.0 0.0
18/04:30am 19.6 17.2 12.8 65 3.8 ESE 17 33 9 18 1018.1 1017.8 0.0
18/04:00am 19.9 17.6 13.1 65 3.9 ESE 17 33 9 18 1018.0 1017.7 0.0
18/03:30am 20.1 17.5 13.3 65 3.9 ESE 19 28 10 15 1018.0 1017.7 0.0
18/03:00am 20.5 17.7 13.2 63 4.2 ESE 20 32 11 17 1018.0 1017.7 0.0
18/02:30am 21.0 18.5 13.4 62 4.4 ESE 19 30 10 16 1018.0 1017.7 0.0
18/02:00am 21.4 19.3 13.6 61 4.5 E 17 32 9 17 1018.0 1017.7 0.0
18/01:30am 22.1 19.5 13.7 59 4.9 E 20 39 11 21 1018.0 1017.7 0.0
18/01:04am 22.6 18.5 13.7 57 5.2 E 28 52 15 28 1017.7 1017.4 0.0
18/01:00am 22.7 18.5 13.5 56 5.3 E 28 44 15 24 1017.6 1017.3 0.0
18/12:30am 23.2 18.6 13.4 54 5.7 E 30 54 16 29 1017.7 1017.4 0.0
18/12:15am 23.6 18.5 13.2 52 6.0 E 32 50 17 27 1017.6 1017.3 0.0
18/12:00am 23.9 18.7 12.8 49 6.4 E 32 46 17 25 1017.7 1017.4 0.0

Latest Capital City Observations: Canberra | Sydney | Melbourne | Brisbane | Adelaide | Perth | Hobart | Darwin

Other Formats:

Comma delimited format used in spreadsheet applications
http://www.bom.gov.au/fwo/IDW60901/IDW60901.94612.axf

JavaScript Object Notation format (JSON) in row-major order
http://www.bom.gov.au/fwo/IDW60901/IDW60901.94612.json